sensor_id;sensor_type;location;lat;lon;timestamp;pressure;altitude;pressure_sealevel;temperature;humidity
22775;BME280;11554;51.106;3.684;2022-12-29T00:00:00;99951.03;;;9.80;100.0
22775;BME280;11554;51.106;3.684;2022-12-29T00:05:00;99949.17;;;9.90;100.0
22775;BME280;11554;51.106;3.684;2022-12-29T00:10:00;99946.6;;;9.99;100.0
22775;BME280;11554;51.106;3.684;2022-12-29T00:15:00;99957.97;;;10.03;100.0
22775;BME280;11554;51.106;3.684;2022-12-29T00:20:00;99948.05;;;10.10;100.0
22775;BME280;11554;51.106;3.684;2022-12-29T00:25:00;99943.76999999999;;;10.11;100.0
22775;BME280;11554;51.106;3.684;2022-12-29T00:30:00;99937.15999999999;;;10.16;100.0
22775;BME280;11554;51.106;3.684;2022-12-29T00:35:00;99925.53;;;10.19;100.0
22775;BME280;11554;51.106;3.684;2022-12-29T00:40:00;99931.95;;;10.20;100.0
22775;BME280;11554;51.106;3.684;2022-12-29T00:45:00;99936.72;;;10.17;100.0
22775;BME280;11554;51.106;3.684;2022-12-29T00:50:00;99921.45000000001;;;10.18;100.0
22775;BME280;11554;51.106;3.684;2022-12-29T00:55:00;99916.51000000001;;;10.17;100.0
22775;BME280;11554;51.106;3.684;2022-12-29T01:00:00;99937.48000000001;;;10.21;100.0
22775;BME280;11554;51.106;3.684;2022-12-29T01:05:00;99947.47;;;10.24;100.0
22775;BME280;11554;51.106;3.684;2022-12-29T01:10:00;99956.64;;;10.26;100.0
22775;BME280;11554;51.106;3.684;2022-12-29T01:15:00;99949.51999999999;;;10.28;100.0
22775;BME280;11554;51.106;3.684;2022-12-29T01:20:00;99949.19;;;10.26;100.0
22775;BME280;11554;51.106;3.684;2022-12-29T01:25:00;99959.36;;;10.28;100.0
22775;BME280;11554;51.106;3.684;2022-12-29T01:30:00;99950.29;;;10.30;100.0
22775;BME280;11554;51.106;3.684;2022-12-29T01:35:00;99954.17;;;10.27;100.0
22775;BME280;11554;51.106;3.684;2022-12-29T01:40:00;99948.72;;;10.23;100.0
22775;BME280;11554;51.106;3.684;2022-12-29T01:45:01;99936.41;;;10.20;100.0
22775;BME280;11554;51.106;3.684;2022-12-29T01:50:03;99959.47;;;10.19;100.0
22775;BME280;11554;51.106;3.684;2022-12-29T01:55:00;99954.16;;;10.23;100.0
22775;BME280;11554;51.106;3.684;2022-12-29T02:00:00;99966.61;;;10.17;100.0
22775;BME280;11554;51.106;3.684;2022-12-29T02:05:01;99965.8;;;10.15;100.0
22775;BME280;11554;51.106;3.684;2022-12-29T02:10:00;99950.7;;;10.16;100.0
22775;BME280;11554;51.106;3.684;2022-12-29T02:15:00;99953.88;;;10.09;100.0
22775;BME280;11554;51.106;3.684;2022-12-29T02:20:09;99945.81;;;10.03;100.0
22775;BME280;11554;51.106;3.684;2022-12-29T02:25:05;99949.43;;;10.02;100.0
22775;BME280;11554;51.106;3.684;2022-12-29T02:30:05;99955.92;;;10.00;100.0
22775;BME280;11554;51.106;3.684;2022-12-29T02:35:01;99939.18;;;9.95;100.0
22775;BME280;11554;51.106;3.684;2022-12-29T02:40:01;99930.4;;;9.95;100.0
22775;BME280;11554;51.106;3.684;2022-12-29T02:45:02;99920.56;;;9.89;100.0
22775;BME280;11554;51.106;3.684;2022-12-29T02:50:01;99924.31;;;9.87;100.0
22775;BME280;11554;51.106;3.684;2022-12-29T02:55:00;99930.65000000001;;;9.84;100.0
22775;BME280;11554;51.106;3.684;2022-12-29T03:00:01;99929.81;;;9.76;100.0
22775;BME280;11554;51.106;3.684;2022-12-29T03:10:01;99959.16;;;9.58;100.0
22775;BME280;11554;51.106;3.684;2022-12-29T03:15:02;99953.12;;;9.42;100.0
22775;BME280;11554;51.106;3.684;2022-12-29T03:20:01;99961.15;;;9.19;100.0
22775;BME280;11554;51.106;3.684;2022-12-29T03:25:01;99956.7;;;9.04;100.0
22775;BME280;11554;51.106;3.684;2022-12-29T03:30:00;99952.59;;;9.02;100.0
22775;BME280;11554;51.106;3.684;2022-12-29T03:35:00;99963.28;;;9.05;100.0
22775;BME280;11554;51.106;3.684;2022-12-29T03:40:00;99973.56;;;9.15;100.0
22775;BME280;11554;51.106;3.684;2022-12-29T03:45:00;99983.59;;;9.14;100.0
22775;BME280;11554;51.106;3.684;2022-12-29T03:50:00;99984.39;;;9.11;100.0
22775;BME280;11554;51.106;3.684;2022-12-29T03:55:00;99975.72;;;9.14;100.0
22775;BME280;11554;51.106;3.684;2022-12-29T04:00:00;99970.03;;;9.18;100.0
22775;BME280;11554;51.106;3.684;2022-12-29T04:05:00;99976.86;;;9.19;100.0
22775;BME280;11554;51.106;3.684;2022-12-29T04:10:00;99978.63;;;9.15;100.0
22775;BME280;11554;51.106;3.684;2022-12-29T04:15:00;99972.09;;;9.16;100.0
22775;BME280;11554;51.106;3.684;2022-12-29T04:20:00;99977.03;;;9.13;100.0
22775;BME280;11554;51.106;3.684;2022-12-29T04:25:00;99978.83;;;9.11;100.0
22775;BME280;11554;51.106;3.684;2022-12-29T04:30:00;99982.31;;;8.96;100.0
22775;BME280;11554;51.106;3.684;2022-12-29T04:35:00;99983.95000000001;;;8.88;100.0
22775;BME280;11554;51.106;3.684;2022-12-29T04:40:00;99989.73;;;8.92;100.0
22775;BME280;11554;51.106;3.684;2022-12-29T04:45:00;99994.45;;;9.00;100.0
22775;BME280;11554;51.106;3.684;2022-12-29T04:50:00;100002.73999999999;;;9.01;100.0
22775;BME280;11554;51.106;3.684;2022-12-29T04:55:00;99998.14;;;8.99;100.0
22775;BME280;11554;51.106;3.684;2022-12-29T05:00:00;100006.73000000001;;;9.01;100.0
22775;BME280;11554;51.106;3.684;2022-12-29T05:05:00;99992.58;;;9.02;100.0
22775;BME280;11554;51.106;3.684;2022-12-29T05:10:00;99996.23;;;9.02;100.0
22775;BME280;11554;51.106;3.684;2022-12-29T05:15:00;99996.17;;;9.02;100.0
22775;BME280;11554;51.106;3.684;2022-12-29T05:20:00;100008.09000000001;;;8.96;100.0
22775;BME280;11554;51.106;3.684;2022-12-29T05:25:00;100010.46;;;8.92;100.0
22775;BME280;11554;51.106;3.684;2022-12-29T05:30:00;100005.7;;;8.86;100.0
22775;BME280;11554;51.106;3.684;2022-12-29T05:35:00;100005.79000000001;;;8.92;100.0
22775;BME280;11554;51.106;3.684;2022-12-29T05:40:00;100008.34;;;8.95;100.0
22775;BME280;11554;51.106;3.684;2022-12-29T05:45:00;100030.48999999999;;;8.99;100.0
22775;BME280;11554;51.106;3.684;2022-12-29T05:50:00;100040.21;;;9.00;100.0
22775;BME280;11554;51.106;3.684;2022-12-29T05:55:00;100046.95;;;9.09;100.0
22775;BME280;11554;51.106;3.684;2022-12-29T06:00:00;100059.92;;;9.07;100.0
22775;BME280;11554;51.106;3.684;2022-12-29T06:05:00;100061.15999999999;;;9.05;100.0
22775;BME280;11554;51.106;3.684;2022-12-29T06:10:00;100069.39;;;8.99;100.0
22775;BME280;11554;51.106;3.684;2022-12-29T06:15:00;100082.9;;;9.04;100.0
22775;BME280;11554;51.106;3.684;2022-12-29T06:20:00;100078.78;;;9.01;100.0
22775;BME280;11554;51.106;3.684;2022-12-29T06:25:00;100073.81;;;8.97;100.0
22775;BME280;11554;51.106;3.684;2022-12-29T06:30:00;100075.66;;;8.93;100.0
22775;BME280;11554;51.106;3.684;2022-12-29T06:35:00;100090.98;;;8.98;100.0
22775;BME280;11554;51.106;3.684;2022-12-29T06:40:00;100101.56;;;8.84;100.0
22775;BME280;11554;51.106;3.684;2022-12-29T06:45:00;100104.45999999999;;;8.62;100.0
22775;BME280;11554;51.106;3.684;2022-12-29T06:50:00;100111.21;;;8.42;100.0
22775;BME280;11554;51.106;3.684;2022-12-29T06:55:00;100101.19;;;8.30;100.0
22775;BME280;11554;51.106;3.684;2022-12-29T07:00:00;100100.69;;;8.26;100.0
22775;BME280;11554;51.106;3.684;2022-12-29T07:05:00;100090.21;;;8.26;100.0
22775;BME280;11554;51.106;3.684;2022-12-29T07:10:00;100095.72;;;8.27;100.0
22775;BME280;11554;51.106;3.684;2022-12-29T07:15:00;100092.0;;;8.32;100.0
22775;BME280;11554;51.106;3.684;2022-12-29T07:20:00;100095.5;;;8.45;100.0
22775;BME280;11554;51.106;3.684;2022-12-29T07:25:00;100098.61;;;8.50;100.0
22775;BME280;11554;51.106;3.684;2022-12-29T07:30:00;100095.37;;;8.60;100.0
22775;BME280;11554;51.106;3.684;2022-12-29T07:35:00;100098.58;;;8.59;100.0
22775;BME280;11554;51.106;3.684;2022-12-29T07:40:00;100098.51999999999;;;8.65;100.0
22775;BME280;11554;51.106;3.684;2022-12-29T07:45:00;100094.16;;;8.69;100.0
22775;BME280;11554;51.106;3.684;2022-12-29T07:50:00;100099.39;;;8.72;100.0
22775;BME280;11554;51.106;3.684;2022-12-29T07:55:00;100104.17;;;8.76;100.0
22775;BME280;11554;51.106;3.684;2022-12-29T08:00:00;100114.67;;;8.75;100.0
22775;BME280;11554;51.106;3.684;2022-12-29T08:05:00;100117.72;;;8.69;100.0
22775;BME280;11554;51.106;3.684;2022-12-29T08:10:00;100141.48;;;8.63;100.0
22775;BME280;11554;51.106;3.684;2022-12-29T08:15:00;100151.73;;;8.52;100.0
22775;BME280;11554;51.106;3.684;2022-12-29T08:20:00;100158.4;;;8.40;100.0
22775;BME280;11554;51.106;3.684;2022-12-29T08:25:00;100166.83;;;8.32;100.0
22775;BME280;11554;51.106;3.684;2022-12-29T08:30:00;100187.73;;;8.36;100.0
22775;BME280;11554;51.106;3.684;2022-12-29T08:35:00;100179.03;;;8.35;100.0
22775;BME280;11554;51.106;3.684;2022-12-29T08:40:00;100188.57;;;8.35;100.0
22775;BME280;11554;51.106;3.684;2022-12-29T08:45:00;100211.83;;;8.32;100.0
22775;BME280;11554;51.106;3.684;2022-12-29T08:50:00;100228.11;;;8.29;100.0
22775;BME280;11554;51.106;3.684;2022-12-29T08:55:00;100238.3;;;8.28;100.0
22775;BME280;11554;51.106;3.684;2022-12-29T09:00:00;100237.7;;;8.24;100.0
22775;BME280;11554;51.106;3.684;2022-12-29T09:05:00;100236.97;;;8.23;100.0
22775;BME280;11554;51.106;3.684;2022-12-29T09:10:00;100254.39;;;8.26;100.0
22775;BME280;11554;51.106;3.684;2022-12-29T09:15:00;100255.90999999999;;;8.33;100.0
22775;BME280;11554;51.106;3.684;2022-12-29T09:20:00;100261.19;;;8.35;100.0
22775;BME280;11554;51.106;3.684;2022-12-29T09:25:00;100271.95;;;8.44;100.0
22775;BME280;11554;51.106;3.684;2022-12-29T09:30:00;100289.97;;;8.54;100.0
22775;BME280;11554;51.106;3.684;2022-12-29T09:35:00;100293.64;;;8.65;100.0
22775;BME280;11554;51.106;3.684;2022-12-29T09:40:00;100306.48999999999;;;8.81;100.0
22775;BME280;11554;51.106;3.684;2022-12-29T09:45:03;100313.26000000001;;;8.65;100.0
22775;BME280;11554;51.106;3.684;2022-12-29T09:50:01;100321.25;;;8.64;100.0
22775;BME280;11554;51.106;3.684;2022-12-29T09:55:00;100335.56999999999;;;8.65;100.0
22775;BME280;11554;51.106;3.684;2022-12-29T10:00:01;100356.16;;;8.66;100.0
22775;BME280;11554;51.106;3.684;2022-12-29T10:05:00;100355.53;;;8.76;100.0
22775;BME280;11554;51.106;3.684;2022-12-29T10:10:03;100360.76000000001;;;8.74;100.0
22775;BME280;11554;51.106;3.684;2022-12-29T10:15:02;100359.23;;;8.71;100.0
22775;BME280;11554;51.106;3.684;2022-12-29T10:20:03;100366.27;;;8.76;100.0
22775;BME280;11554;51.106;3.684;2022-12-29T10:25:00;100359.48;;;8.89;100.0
22775;BME280;11554;51.106;3.684;2022-12-29T10:30:01;100371.48999999999;;;8.97;100.0
22775;BME280;11554;51.106;3.684;2022-12-29T10:35:01;100385.05;;;9.15;100.0
22775;BME280;11554;51.106;3.684;2022-12-29T10:40:00;100389.51;;;9.37;100.0
22775;BME280;11554;51.106;3.684;2022-12-29T10:45:00;100406.78;;;9.37;100.0
22775;BME280;11554;51.106;3.684;2022-12-29T10:50:00;100404.61;;;9.43;100.0
22775;BME280;11554;51.106;3.684;2022-12-29T10:55:00;100406.98;;;9.42;100.0
22775;BME280;11554;51.106;3.684;2022-12-29T11:00:00;100418.84;;;9.37;100.0
22775;BME280;11554;51.106;3.684;2022-12-29T11:05:00;100424.55;;;9.35;100.0
22775;BME280;11554;51.106;3.684;2022-12-29T11:15:02;100445.68000000001;;;9.41;100.0
22775;BME280;11554;51.106;3.684;2022-12-29T11:20:03;100446.96;;;9.57;100.0
22775;BME280;11554;51.106;3.684;2022-12-29T11:25:05;100447.58;;;9.71;100.0
22775;BME280;11554;51.106;3.684;2022-12-29T11:30:00;100454.3;;;9.67;100.0
22775;BME280;11554;51.106;3.684;2022-12-29T11:35:00;100447.51;;;9.58;100.0
22775;BME280;11554;51.106;3.684;2022-12-29T11:40:01;100440.37;;;9.33;100.0
22775;BME280;11554;51.106;3.684;2022-12-29T11:45:03;100439.09;;;9.09;100.0
22775;BME280;11554;51.106;3.684;2022-12-29T11:50:00;100453.54999999999;;;8.86;100.0
22775;BME280;11554;51.106;3.684;2022-12-29T11:55:00;100448.46;;;8.95;100.0
22775;BME280;11554;51.106;3.684;2022-12-29T12:00:00;100450.27;;;9.06;100.0
22775;BME280;11554;51.106;3.684;2022-12-29T12:05:02;100455.97;;;9.03;100.0
22775;BME280;11554;51.106;3.684;2022-12-29T12:10:00;100465.91;;;9.03;100.0
22775;BME280;11554;51.106;3.684;2022-12-29T12:15:00;100464.78;;;8.99;100.0
22775;BME280;11554;51.106;3.684;2022-12-29T12:20:01;100463.81;;;8.99;100.0
22775;BME280;11554;51.106;3.684;2022-12-29T12:25:01;100462.23;;;9.02;100.0
22775;BME280;11554;51.106;3.684;2022-12-29T12:30:01;100466.90999999999;;;9.13;100.0
22775;BME280;11554;51.106;3.684;2022-12-29T12:35:00;100464.73;;;9.24;100.0
22775;BME280;11554;51.106;3.684;2022-12-29T12:40:06;100476.84000000001;;;9.13;100.0
22775;BME280;11554;51.106;3.684;2022-12-29T12:45:04;100478.73;;;9.11;100.0
22775;BME280;11554;51.106;3.684;2022-12-29T12:50:11;100475.42;;;9.06;100.0
22775;BME280;11554;51.106;3.684;2022-12-29T12:55:04;100479.47;;;9.08;100.0
22775;BME280;11554;51.106;3.684;2022-12-29T13:00:00;100490.88;;;9.10;100.0
22775;BME280;11554;51.106;3.684;2022-12-29T13:05:03;100489.62;;;9.12;100.0
22775;BME280;11554;51.106;3.684;2022-12-29T13:10:02;100481.12;;;9.10;100.0
22775;BME280;11554;51.106;3.684;2022-12-29T13:15:02;100489.81;;;8.98;100.0
22775;BME280;11554;51.106;3.684;2022-12-29T13:20:02;100514.58;;;8.93;100.0
22775;BME280;11554;51.106;3.684;2022-12-29T13:25:05;100505.88;;;8.87;100.0
22775;BME280;11554;51.106;3.684;2022-12-29T13:30:01;100505.69;;;8.73;100.0
22775;BME280;11554;51.106;3.684;2022-12-29T13:35:04;100508.12;;;8.52;100.0
22775;BME280;11554;51.106;3.684;2022-12-29T13:40:01;100501.71;;;8.44;100.0
22775;BME280;11554;51.106;3.684;2022-12-29T13:45:02;100510.5;;;8.39;100.0
22775;BME280;11554;51.106;3.684;2022-12-29T13:50:01;100522.39;;;8.37;100.0
22775;BME280;11554;51.106;3.684;2022-12-29T13:55:01;100531.93;;;8.23;100.0
22775;BME280;11554;51.106;3.684;2022-12-29T14:00:02;100534.53;;;8.23;100.0
22775;BME280;11554;51.106;3.684;2022-12-29T14:05:00;100539.09;;;8.18;100.0
22775;BME280;11554;51.106;3.684;2022-12-29T14:10:00;100541.89;;;8.13;100.0
22775;BME280;11554;51.106;3.684;2022-12-29T14:15:04;100553.09;;;8.05;100.0
22775;BME280;11554;51.106;3.684;2022-12-29T14:20:00;100553.18;;;8.01;100.0
22775;BME280;11554;51.106;3.684;2022-12-29T14:25:01;100553.67;;;8.00;100.0
22775;BME280;11554;51.106;3.684;2022-12-29T14:30:00;100562.36;;;7.99;100.0
22775;BME280;11554;51.106;3.684;2022-12-29T14:35:00;100563.28;;;8.09;100.0
22775;BME280;11554;51.106;3.684;2022-12-29T14:40:02;100562.77;;;8.02;100.0
22775;BME280;11554;51.106;3.684;2022-12-29T14:45:02;100574.32;;;7.88;100.0
22775;BME280;11554;51.106;3.684;2022-12-29T14:50:02;100581.73000000001;;;7.80;100.0
22775;BME280;11554;51.106;3.684;2022-12-29T14:55:02;100582.4;;;7.73;100.0
22775;BME280;11554;51.106;3.684;2022-12-29T15:00:05;100577.89;;;7.67;100.0
22775;BME280;11554;51.106;3.684;2022-12-29T15:05:00;100570.88;;;7.62;100.0
22775;BME280;11554;51.106;3.684;2022-12-29T15:10:03;100569.69;;;7.61;100.0
22775;BME280;11554;51.106;3.684;2022-12-29T15:15:00;100580.89;;;7.61;100.0
22775;BME280;11554;51.106;3.684;2022-12-29T15:20:01;100599.39;;;7.61;100.0
22775;BME280;11554;51.106;3.684;2022-12-29T15:25:00;100603.63;;;7.58;100.0
22775;BME280;11554;51.106;3.684;2022-12-29T15:30:00;100613.17;;;7.47;100.0
22775;BME280;11554;51.106;3.684;2022-12-29T15:35:00;100615.9;;;7.35;100.0
22775;BME280;11554;51.106;3.684;2022-12-29T15:40:00;100614.58;;;7.26;100.0
22775;BME280;11554;51.106;3.684;2022-12-29T15:45:02;100621.54000000001;;;7.25;100.0
22775;BME280;11554;51.106;3.684;2022-12-29T15:50:02;100635.22;;;7.14;100.0
22775;BME280;11554;51.106;3.684;2022-12-29T15:55:00;100638.51;;;7.07;100.0
22775;BME280;11554;51.106;3.684;2022-12-29T16:00:00;100643.12;;;6.95;100.0
22775;BME280;11554;51.106;3.684;2022-12-29T16:05:00;100645.87;;;6.87;100.0
22775;BME280;11554;51.106;3.684;2022-12-29T16:10:00;100644.64;;;6.79;100.0
22775;BME280;11554;51.106;3.684;2022-12-29T16:15:00;100648.91;;;6.65;100.0
22775;BME280;11554;51.106;3.684;2022-12-29T16:20:00;100653.14;;;6.57;100.0
22775;BME280;11554;51.106;3.684;2022-12-29T16:25:00;100651.93000000001;;;6.53;100.0
22775;BME280;11554;51.106;3.684;2022-12-29T16:30:03;100653.45;;;6.52;100.0
22775;BME280;11554;51.106;3.684;2022-12-29T16:35:07;100663.2;;;6.47;100.0
22775;BME280;11554;51.106;3.684;2022-12-29T16:45:03;100668.59;;;6.37;100.0
22775;BME280;11554;51.106;3.684;2022-12-29T16:50:10;100680.95;;;6.34;100.0
22775;BME280;11554;51.106;3.684;2022-12-29T16:55:00;100669.53;;;6.35;100.0
22775;BME280;11554;51.106;3.684;2022-12-29T17:00:01;100688.61;;;6.35;100.0
22775;BME280;11554;51.106;3.684;2022-12-29T17:05:00;100681.7;;;6.35;100.0
22775;BME280;11554;51.106;3.684;2022-12-29T17:10:00;100694.39;;;6.30;100.0
22775;BME280;11554;51.106;3.684;2022-12-29T17:15:00;100701.92;;;6.29;100.0
22775;BME280;11554;51.106;3.684;2022-12-29T17:20:00;100701.36;;;6.27;100.0
22775;BME280;11554;51.106;3.684;2022-12-29T17:25:00;100708.18000000001;;;6.30;100.0
22775;BME280;11554;51.106;3.684;2022-12-29T17:30:01;100718.52;;;6.28;100.0
22775;BME280;11554;51.106;3.684;2022-12-29T17:35:00;100729.69;;;6.31;100.0
22775;BME280;11554;51.106;3.684;2022-12-29T17:40:00;100734.77;;;6.28;100.0
22775;BME280;11554;51.106;3.684;2022-12-29T17:45:00;100744.3;;;6.26;100.0
22775;BME280;11554;51.106;3.684;2022-12-29T17:50:00;100739.9;;;6.31;100.0
22775;BME280;11554;51.106;3.684;2022-12-29T17:55:00;100747.42;;;6.36;100.0
22775;BME280;11554;51.106;3.684;2022-12-29T18:00:00;100759.23;;;6.45;100.0
22775;BME280;11554;51.106;3.684;2022-12-29T18:05:00;100761.51;;;6.46;100.0
22775;BME280;11554;51.106;3.684;2022-12-29T18:10:00;100757.83;;;6.42;100.0
22775;BME280;11554;51.106;3.684;2022-12-29T18:15:00;100770.31;;;6.40;100.0
22775;BME280;11554;51.106;3.684;2022-12-29T18:20:00;100769.61;;;6.42;100.0
22775;BME280;11554;51.106;3.684;2022-12-29T18:25:00;100781.67;;;6.43;100.0
22775;BME280;11554;51.106;3.684;2022-12-29T18:30:00;100788.03;;;6.43;100.0
22775;BME280;11554;51.106;3.684;2022-12-29T18:35:00;100795.73000000001;;;6.39;100.0
22775;BME280;11554;51.106;3.684;2022-12-29T18:40:00;100802.17;;;6.40;100.0
22775;BME280;11554;51.106;3.684;2022-12-29T18:45:00;100813.11;;;6.31;100.0
22775;BME280;11554;51.106;3.684;2022-12-29T18:50:00;100821.01;;;6.28;100.0
22775;BME280;11554;51.106;3.684;2022-12-29T18:55:00;100827.03;;;6.20;100.0
22775;BME280;11554;51.106;3.684;2022-12-29T19:00:00;100812.55;;;6.17;100.0
22775;BME280;11554;51.106;3.684;2022-12-29T19:05:00;100812.05;;;6.14;100.0
22775;BME280;11554;51.106;3.684;2022-12-29T19:10:00;100809.44;;;6.13;100.0
22775;BME280;11554;51.106;3.684;2022-12-29T19:15:00;100803.68999999999;;;6.06;100.0
22775;BME280;11554;51.106;3.684;2022-12-29T19:20:00;100814.94;;;6.00;100.0
22775;BME280;11554;51.106;3.684;2022-12-29T19:25:00;100828.5;;;5.98;100.0
22775;BME280;11554;51.106;3.684;2022-12-29T19:30:00;100832.61;;;5.96;100.0
22775;BME280;11554;51.106;3.684;2022-12-29T19:35:00;100847.24;;;5.85;100.0
22775;BME280;11554;51.106;3.684;2022-12-29T19:40:00;100848.42;;;5.79;100.0
22775;BME280;11554;51.106;3.684;2022-12-29T19:45:00;100862.13;;;5.78;100.0
22775;BME280;11554;51.106;3.684;2022-12-29T19:50:01;100856.3;;;5.92;100.0
22775;BME280;11554;51.106;3.684;2022-12-29T19:55:00;100867.7;;;5.90;100.0
22775;BME280;11554;51.106;3.684;2022-12-29T20:00:00;100865.68;;;5.89;100.0
22775;BME280;11554;51.106;3.684;2022-12-29T20:05:00;100858.47;;;5.79;100.0
22775;BME280;11554;51.106;3.684;2022-12-29T20:10:00;100860.94;;;5.80;100.0
22775;BME280;11554;51.106;3.684;2022-12-29T20:15:00;100868.61;;;5.82;100.0
22775;BME280;11554;51.106;3.684;2022-12-29T20:20:00;100881.73000000001;;;5.82;100.0
22775;BME280;11554;51.106;3.684;2022-12-29T20:25:00;100880.08;;;5.75;100.0
22775;BME280;11554;51.106;3.684;2022-12-29T20:30:00;100893.73000000001;;;5.69;100.0
22775;BME280;11554;51.106;3.684;2022-12-29T20:35:00;100891.45999999999;;;5.70;100.0
22775;BME280;11554;51.106;3.684;2022-12-29T20:40:00;100880.08;;;5.60;100.0
22775;BME280;11554;51.106;3.684;2022-12-29T20:45:00;100887.61;;;5.58;100.0
22775;BME280;11554;51.106;3.684;2022-12-29T20:50:00;100882.05;;;5.60;100.0
22775;BME280;11554;51.106;3.684;2022-12-29T20:55:00;100883.29;;;5.57;100.0
22775;BME280;11554;51.106;3.684;2022-12-29T21:00:00;100880.87000000001;;;5.58;100.0
22775;BME280;11554;51.106;3.684;2022-12-29T21:05:00;100891.88;;;5.61;100.0
22775;BME280;11554;51.106;3.684;2022-12-29T21:10:00;100897.69;;;5.55;100.0
22775;BME280;11554;51.106;3.684;2022-12-29T21:15:00;100904.14;;;5.50;100.0
22775;BME280;11554;51.106;3.684;2022-12-29T21:20:00;100906.87000000001;;;5.48;100.0
22775;BME280;11554;51.106;3.684;2022-12-29T21:25:00;100920.37;;;5.40;100.0
22775;BME280;11554;51.106;3.684;2022-12-29T21:30:00;100936.39;;;5.31;100.0
22775;BME280;11554;51.106;3.684;2022-12-29T21:35:00;100936.44;;;5.27;100.0
22775;BME280;11554;51.106;3.684;2022-12-29T21:40:00;100940.92000000001;;;5.20;100.0
22775;BME280;11554;51.106;3.684;2022-12-29T21:45:00;100945.56999999999;;;5.19;100.0
22775;BME280;11554;51.106;3.684;2022-12-29T21:50:00;100944.02;;;5.17;100.0
22775;BME280;11554;51.106;3.684;2022-12-29T21:55:00;100952.11;;;5.08;100.0
22775;BME280;11554;51.106;3.684;2022-12-29T22:00:00;100954.31999999999;;;5.09;100.0
22775;BME280;11554;51.106;3.684;2022-12-29T22:05:00;100958.51;;;5.01;100.0
22775;BME280;11554;51.106;3.684;2022-12-29T22:10:00;100959.77;;;4.98;100.0
22775;BME280;11554;51.106;3.684;2022-12-29T22:15:00;100970.56;;;4.98;100.0
22775;BME280;11554;51.106;3.684;2022-12-29T22:20:00;100975.9;;;4.94;100.0
22775;BME280;11554;51.106;3.684;2022-12-29T22:25:00;100982.59000000001;;;4.88;100.0
22775;BME280;11554;51.106;3.684;2022-12-29T22:30:00;100987.73;;;4.83;100.0
22775;BME280;11554;51.106;3.684;2022-12-29T22:35:00;100985.97;;;4.80;100.0
22775;BME280;11554;51.106;3.684;2022-12-29T22:40:00;100984.2;;;4.72;100.0
22775;BME280;11554;51.106;3.684;2022-12-29T22:45:00;100994.48999999999;;;4.63;100.0
22775;BME280;11554;51.106;3.684;2022-12-29T22:50:00;101000.84000000001;;;4.56;100.0
22775;BME280;11554;51.106;3.684;2022-12-29T22:55:00;100998.08;;;4.55;100.0
22775;BME280;11554;51.106;3.684;2022-12-29T23:00:00;100990.47;;;4.46;100.0
22775;BME280;11554;51.106;3.684;2022-12-29T23:05:00;100997.52;;;4.40;100.0
22775;BME280;11554;51.106;3.684;2022-12-29T23:10:00;100991.74;;;4.38;100.0
22775;BME280;11554;51.106;3.684;2022-12-29T23:15:00;100991.39;;;4.39;100.0
22775;BME280;11554;51.106;3.684;2022-12-29T23:20:00;100988.54;;;4.38;100.0
22775;BME280;11554;51.106;3.684;2022-12-29T23:25:00;100994.14;;;4.40;100.0
22775;BME280;11554;51.106;3.684;2022-12-29T23:30:00;100996.28;;;4.45;100.0
22775;BME280;11554;51.106;3.684;2022-12-29T23:35:00;100993.8;;;4.45;100.0
22775;BME280;11554;51.106;3.684;2022-12-29T23:40:00;100991.78;;;4.47;100.0
22775;BME280;11554;51.106;3.684;2022-12-29T23:45:00;100997.34;;;4.53;100.0
22775;BME280;11554;51.106;3.684;2022-12-29T23:50:00;101002.48;;;4.53;100.0
22775;BME280;11554;51.106;3.684;2022-12-29T23:55:00;101005.35;;;4.53;100.0
